Time;durP1;ratioP1;P1;durP2;ratioP2;P2;SDS_P1;SDS_P2;PMS_P1;PMS_P2;Temp;Humidity;BMP_temperature;BMP_pressure;BME280_temperature;BME280_humidity;BME280_pressure;Samples;Min_cycle;Max_cycle;Signal;HPM_P1;HPM_P2
2022/05/15 00:01:30;;;;;;;;;;;19.30;61.90;;;;;;5032416;28;1257;-69
2022/05/15 00:03:55;;;;;;;;;;;19.30;61.90;;;;;;5031498;28;813;-69
2022/05/15 00:06:21;;;;;;;;;;;19.30;61.90;;;;;;5031533;28;751;-69
2022/05/15 00:08:46;;;;;;;;;;;19.30;62.00;;;;;;5032725;28;794;-70
2022/05/15 00:11:12;;;;;;;;;;;19.30;61.90;;;;;;5030247;28;1318;-69
2022/05/15 00:13:37;;;;;;;;;;;19.30;61.90;;;;;;5031314;28;1109;-69
2022/05/15 00:16:03;;;;;;;;;;;19.30;61.90;;;;;;5031235;28;1086;-69
2022/05/15 00:18:28;;;;;;;;;;;19.30;62.00;;;;;;5041055;28;1903;-70
2022/05/15 00:20:54;;;;;;;;;;;19.30;61.90;;;;;;5040360;28;1310;-69
2022/05/15 00:23:20;;;;;;;;;;;19.30;62.00;;;;;;5047921;28;889;-70
2022/05/15 00:25:45;;;;;;;;;;;19.30;62.00;;;;;;5036528;28;1151;-70
2022/05/15 00:28:11;;;;;;;;;;;19.30;62.00;;;;;;5071589;28;991;-69
2022/05/15 00:30:36;;;;;;;;;;;19.30;62.00;;;;;;5070211;28;1294;-69
2022/05/15 00:33:02;;;;;;;;;;;19.30;62.00;;;;;;5070612;28;1018;-70
2022/05/15 00:35:27;;;;;;;;;;;19.30;62.00;;;;;;5070951;28;935;-70
2022/05/15 00:37:52;;;;;;;;;;;19.30;62.00;;;;;;5069760;28;1906;-69
2022/05/15 00:40:18;;;;;;;;;;;19.30;62.10;;;;;;5071667;28;1156;-69
2022/05/15 00:42:44;;;;;;;;;;;19.30;62.00;;;;;;5070929;28;844;-70
2022/05/15 00:45:09;;;;;;;;;;;19.30;62.00;;;;;;5071048;28;1043;-69
2022/05/15 00:47:35;;;;;;;;;;;19.30;62.00;;;;;;5071728;28;895;-69
2022/05/15 00:50:02;;;;;;;;;;;19.30;62.10;;;;;;5070164;28;865;-70
2022/05/15 00:52:28;;;;;;;;;;;19.30;62.10;;;;;;5070746;28;820;-69
2022/05/15 00:55:07;;;;;;;;;;;19.30;62.10;;;;;;5071909;28;1002;-69
2022/05/15 00:57:37;;;;;;;;;;;19.30;62.10;;;;;;5070959;28;1902;-69
2022/05/15 01:00:13;;;;;;;;;;;19.30;62.10;;;;;;5070094;28;912;-70
2022/05/15 01:02:42;;;;;;;;;;;19.30;62.10;;;;;;5070685;28;1010;-69
2022/05/15 01:05:09;;;;;;;;;;;19.30;62.10;;;;;;5072059;28;1034;-69
2022/05/15 01:07:34;;;;;;;;;;;19.30;62.10;;;;;;5070628;28;1036;-69
2022/05/15 01:10:00;;;;;;;;;;;19.30;62.10;;;;;;5071171;28;709;-69
2022/05/15 01:12:25;;;;;;;;;;;19.30;62.10;;;;;;5070465;28;1271;-69
2022/05/15 01:14:51;;;;;;;;;;;19.30;62.10;;;;;;5053799;28;1030;-69
2022/05/15 01:17:16;;;;;;;;;;;19.30;62.10;;;;;;5070334;28;1898;-69
2022/05/15 01:19:42;;;;;;;;;;;19.30;62.20;;;;;;5051295;28;1101;-70
2022/05/15 01:22:08;;;;;;;;;;;19.30;62.20;;;;;;5029969;28;1217;-70
2022/05/15 01:24:34;;;;;;;;;;;19.30;62.20;;;;;;5029239;28;805;-69
2022/05/15 01:27:00;;;;;;;;;;;19.30;62.20;;;;;;5054127;28;1163;-69
2022/05/15 01:29:26;;;;;;;;;;;19.30;62.20;;;;;;5068839;28;856;-70
2022/05/15 01:31:52;;;;;;;;;;;19.30;62.20;;;;;;5069537;28;1298;-70
2022/05/15 01:34:17;;;;;;;;;;;19.30;62.20;;;;;;5070828;28;800;-70
2022/05/15 01:36:43;;;;;;;;;;;19.30;62.20;;;;;;5069060;28;1957;-69
2022/05/15 01:39:08;;;;;;;;;;;19.30;62.20;;;;;;5069941;28;928;-69
2022/05/15 01:41:34;;;;;;;;;;;19.30;62.20;;;;;;5070003;28;1203;-70
2022/05/15 01:43:59;;;;;;;;;;;19.30;62.20;;;;;;5070161;28;1058;-69
2022/05/15 01:46:25;;;;;;;;;;;19.30;62.20;;;;;;5070638;28;674;-70
2022/05/15 01:48:51;;;;;;;;;;;19.30;62.20;;;;;;5070229;28;1026;-70
2022/05/15 01:51:16;;;;;;;;;;;19.30;62.30;;;;;;5072269;28;1213;-70
2022/05/15 01:53:42;;;;;;;;;;;19.30;63.00;;;;;;5072632;28;803;-69
2022/05/15 01:56:07;;;;;;;;;;;19.30;62.30;;;;;;5073500;28;824;-70
2022/05/15 01:58:33;;;;;;;;;;;19.30;62.20;;;;;;5072563;28;1905;-69
2022/05/15 02:00:58;;;;;;;;;;;19.30;62.20;;;;;;5088551;28;1223;-69
2022/05/15 02:03:24;;;;;;;;;;;19.30;62.30;;;;;;5072477;28;892;-69
2022/05/15 02:05:50;;;;;;;;;;;19.30;62.20;;;;;;5073760;28;872;-70
2022/05/15 02:08:16;;;;;;;;;;;19.30;62.20;;;;;;5072447;28;848;-69
2022/05/15 02:10:41;;;;;;;;;;;19.30;62.30;;;;;;5072927;28;1225;-69
2022/05/15 02:13:07;;;;;;;;;;;19.30;62.30;;;;;;5088908;28;919;-69
2022/05/15 02:15:32;;;;;;;;;;;19.30;62.30;;;;;;5073644;28;947;-69
2022/05/15 02:17:57;;;;;;;;;;;19.30;62.30;;;;;;5069481;28;1894;-69
2022/05/15 02:20:24;;;;;;;;;;;19.30;62.30;;;;;;5010895;28;1012335;-69
2022/05/15 02:22:50;;;;;;;;;;;19.30;62.30;;;;;;5033070;28;880;-69
2022/05/15 02:25:16;;;;;;;;;;;19.30;62.30;;;;;;5042271;28;2001;-70
2022/05/15 02:27:41;;;;;;;;;;;19.30;62.30;;;;;;5064530;28;1284;-70
2022/05/15 02:30:08;;;;;;;;;;;19.30;62.30;;;;;;5061858;28;1281;-69
2022/05/15 02:32:33;;;;;;;;;;;19.30;62.30;;;;;;5065580;28;930;-69
2022/05/15 02:34:58;;;;;;;;;;;19.30;62.30;;;;;;5064632;28;1078;-70
2022/05/15 02:37:24;;;;;;;;;;;19.30;62.30;;;;;;5074003;28;1898;-69
2022/05/15 02:39:49;;;;;;;;;;;19.20;62.30;;;;;;5072277;28;779;-69
2022/05/15 02:42:15;;;;;;;;;;;19.30;62.30;;;;;;5072970;28;1302;-69
2022/05/15 02:44:40;;;;;;;;;;;19.30;62.40;;;;;;5074543;28;870;-69
2022/05/15 02:47:05;;;;;;;;;;;19.30;62.40;;;;;;5073983;28;824;-68
2022/05/15 02:52:15;;;;;;;;;;;19.30;62.30;;;;;;5054074;28;1395;-70
2022/05/15 02:54:41;;;;;;;;;;;19.30;62.40;;;;;;5053804;28;809;-70
2022/05/15 02:57:07;;;;;;;;;;;19.30;62.40;;;;;;5054029;28;1989;-70
2022/05/15 02:59:32;;;;;;;;;;;19.30;62.30;;;;;;5052187;28;947;-69
2022/05/15 03:01:59;;;;;;;;;;;19.30;62.40;;;;;;5051785;28;1299;-69
2022/05/15 03:04:24;;;;;;;;;;;19.30;62.40;;;;;;5053749;28;856;-70
2022/05/15 03:06:49;;;;;;;;;;;19.30;62.40;;;;;;5053684;28;837;-69
2022/05/15 03:09:15;;;;;;;;;;;19.30;62.40;;;;;;5052643;28;749;-69
2022/05/15 03:11:40;;;;;;;;;;;19.30;62.40;;;;;;5053451;28;1302;-69
2022/05/15 03:14:06;;;;;;;;;;;19.20;62.40;;;;;;5053693;28;904;-70
2022/05/15 03:16:32;;;;;;;;;;;19.20;62.40;;;;;;5052374;28;1965;-70
2022/05/15 03:18:57;;;;;;;;;;;19.20;62.40;;;;;;5039400;28;1389;-70
2022/05/15 03:21:28;;;;;;;;;;;19.20;62.40;;;;;;5048579;28;1368;-70
2022/05/15 03:24:14;;;;;;;;;;;19.30;62.40;;;;;;5044975;28;1247;-69
2022/05/15 03:26:40;;;;;;;;;;;19.20;62.40;;;;;;5043520;28;1310;-69
2022/05/15 03:29:06;;;;;;;;;;;19.20;62.40;;;;;;5040232;28;1235;-71
2022/05/15 03:31:35;;;;;;;;;;;19.20;62.40;;;;;;5039628;28;1393;-69
2022/05/15 03:34:00;;;;;;;;;;;19.30;62.50;;;;;;5041364;28;1254;-70
2022/05/15 03:36:26;;;;;;;;;;;19.20;62.40;;;;;;5052177;28;1203;-70
2022/05/15 03:38:52;;;;;;;;;;;19.20;62.40;;;;;;5053227;28;1007;-69
2022/05/15 03:41:17;;;;;;;;;;;19.20;62.40;;;;;;5053276;28;1205;-69
2022/05/15 03:43:43;;;;;;;;;;;19.20;62.50;;;;;;5068847;28;888;-69
2022/05/15 03:46:09;;;;;;;;;;;19.20;62.40;;;;;;5053318;28;865;-69
2022/05/15 03:48:34;;;;;;;;;;;19.30;62.50;;;;;;5052903;28;693;-69
2022/05/15 03:50:59;;;;;;;;;;;19.20;62.50;;;;;;5052565;28;1205;-69
2022/05/15 03:53:25;;;;;;;;;;;19.20;62.50;;;;;;5068670;28;1056;-69
2022/05/15 03:55:55;;;;;;;;;;;19.20;62.50;;;;;;5035452;28;992;-69
2022/05/15 03:58:21;;;;;;;;;;;19.20;62.50;;;;;;5053120;28;1936;-67
2022/05/15 04:00:47;;;;;;;;;;;19.20;62.50;;;;;;5051280;28;1232;-69
2022/05/15 04:03:12;;;;;;;;;;;19.20;62.50;;;;;;5053037;28;812;-68
2022/05/15 04:05:38;;;;;;;;;;;19.20;62.50;;;;;;5053105;28;907;-67
2022/05/15 04:08:03;;;;;;;;;;;19.20;62.50;;;;;;5053436;28;951;-68
2022/05/15 04:10:30;;;;;;;;;;;19.20;62.50;;;;;;5052204;28;1302;-67
2022/05/15 04:12:55;;;;;;;;;;;19.20;62.50;;;;;;5051617;28;840;-67
2022/05/15 04:15:20;;;;;;;;;;;19.20;62.50;;;;;;5052921;28;876;-67
2022/05/15 04:17:49;;;;;;;;;;;19.20;62.50;;;;;;5050184;28;1951;-67
2022/05/15 04:20:16;;;;;;;;;;;19.20;62.60;;;;;;5030821;28;1221;-67
2022/05/15 04:22:41;;;;;;;;;;;19.20;62.50;;;;;;5048136;23;2033;-75
2022/05/15 04:25:07;;;;;;;;;;;19.20;62.60;;;;;;5022170;28;1560;-75
2022/05/15 04:27:32;;;;;;;;;;;19.20;62.60;;;;;;5031129;28;1466;-75
2022/05/15 04:29:58;;;;;;;;;;;19.20;62.60;;;;;;5019692;28;1233;-75
2022/05/15 04:32:23;;;;;;;;;;;19.20;62.60;;;;;;4992795;28;859;-75
2022/05/15 04:34:49;;;;;;;;;;;19.20;62.60;;;;;;5007921;28;744;-76
2022/05/15 04:37:14;;;;;;;;;;;19.20;62.60;;;;;;5009241;28;1968;-75
2022/05/15 04:39:39;;;;;;;;;;;19.20;62.60;;;;;;5009044;28;1346;-76
2022/05/15 04:42:05;;;;;;;;;;;19.20;62.60;;;;;;5010055;28;1333;-76
2022/05/15 04:44:30;;;;;;;;;;;19.20;62.60;;;;;;5026979;28;922;-76
2022/05/15 04:46:56;;;;;;;;;;;19.20;62.60;;;;;;5027060;28;969;-77
2022/05/15 04:49:21;;;;;;;;;;;19.20;62.60;;;;;;5026436;28;1185;-76
2022/05/15 04:51:47;;;;;;;;;;;19.20;62.60;;;;;;5027143;28;1236;-76
2022/05/15 04:54:12;;;;;;;;;;;19.20;62.60;;;;;;5026635;28;978;-76
2022/05/15 04:56:38;;;;;;;;;;;19.20;62.60;;;;;;5027224;28;1891;-76
2022/05/15 04:59:03;;;;;;;;;;;19.20;62.60;;;;;;5026507;28;1214;-76
2022/05/15 05:01:29;;;;;;;;;;;19.20;62.70;;;;;;5027071;28;796;-76
2022/05/15 05:03:54;;;;;;;;;;;19.20;62.70;;;;;;5026555;28;1203;-76
2022/05/15 05:06:20;;;;;;;;;;;19.20;62.70;;;;;;5026955;28;835;-76
2022/05/15 05:08:45;;;;;;;;;;;19.20;62.70;;;;;;5026817;28;1310;-76
2022/05/15 05:11:11;;;;;;;;;;;19.20;62.70;;;;;;5026147;28;1264;-76
2022/05/15 05:13:36;;;;;;;;;;;19.30;62.70;;;;;;5026795;28;743;-75
2022/05/15 05:16:02;;;;;;;;;;;19.20;62.70;;;;;;5010502;28;854;-76
2022/05/15 05:18:27;;;;;;;;;;;19.20;62.70;;;;;;5026637;28;1961;-76
2022/05/15 05:20:52;;;;;;;;;;;19.20;62.70;;;;;;5026336;28;1217;-76
2022/05/15 05:23:18;;;;;;;;;;;19.20;62.70;;;;;;5027056;28;1009;-75
2022/05/15 05:25:43;;;;;;;;;;;19.20;62.70;;;;;;5030437;28;1218;-76
2022/05/15 05:28:09;;;;;;;;;;;19.20;62.70;;;;;;5014384;28;800;-76
2022/05/15 05:30:34;;;;;;;;;;;19.20;62.70;;;;;;5013997;28;1289;-76
2022/05/15 05:33:00;;;;;;;;;;;19.20;62.70;;;;;;5030616;28;969;-76
2022/05/15 05:35:25;;;;;;;;;;;19.20;62.70;;;;;;5014055;28;1162;-75
2022/05/15 05:37:51;;;;;;;;;;;19.20;62.70;;;;;;5030732;28;1967;-75
2022/05/15 05:40:16;;;;;;;;;;;19.20;62.70;;;;;;5030025;28;1217;-76
2022/05/15 05:42:42;;;;;;;;;;;19.20;62.70;;;;;;5030421;28;1044;-75
2022/05/15 05:45:07;;;;;;;;;;;19.20;62.70;;;;;;5014658;28;1033;-78
2022/05/15 05:47:33;;;;;;;;;;;19.20;63.50;;;;;;5030877;28;1257;-76
2022/05/15 05:49:58;;;;;;;;;;;19.20;62.80;;;;;;5030667;28;1263;-85
2022/05/15 05:52:24;;;;;;;;;;;19.20;62.90;;;;;;5030525;28;1182;-78
2022/05/15 05:54:50;;;;;;;;;;;19.20;63.00;;;;;;5030310;28;851;-76
2022/05/15 05:57:15;;;;;;;;;;;19.20;63.00;;;;;;5030831;28;1902;-78
2022/05/15 05:59:41;;;;;;;;;;;19.20;63.00;;;;;;5029978;28;1196;-77
2022/05/15 06:02:06;;;;;;;;;;;19.20;63.00;;;;;;5030093;28;1271;-76
2022/05/15 06:04:46;;;;;;;;;;;19.20;63.00;;;;;;5030371;28;1315;-75
2022/05/15 06:07:16;;;;;;;;;;;19.20;63.00;;;;;;5030320;28;1246;-76
2022/05/15 06:09:43;;;;;;;;;;;19.20;63.00;;;;;;5029467;28;1206;-75
2022/05/15 06:12:08;;;;;;;;;;;19.20;63.00;;;;;;5029124;28;840;-75
2022/05/15 06:14:34;;;;;;;;;;;19.20;63.00;;;;;;5029508;28;1207;-76
2022/05/15 06:16:59;;;;;;;;;;;19.20;63.00;;;;;;5014052;28;1875;-77
2022/05/15 06:19:25;;;;;;;;;;;19.20;62.90;;;;;;5025839;28;1291;-77
2022/05/15 06:21:50;;;;;;;;;;;19.20;62.90;;;;;;5013343;28;1152;-76
2022/05/15 06:24:16;;;;;;;;;;;19.20;62.90;;;;;;5030203;28;1033;-76
2022/05/15 06:26:41;;;;;;;;;;;19.20;62.90;;;;;;5029609;28;1154;-76
2022/05/15 06:29:07;;;;;;;;;;;19.20;62.90;;;;;;5029267;28;1227;-76
2022/05/15 06:31:32;;;;;;;;;;;19.20;62.90;;;;;;5029807;28;1191;-76
2022/05/15 06:33:58;;;;;;;;;;;19.20;62.90;;;;;;5029729;28;1076;-77
2022/05/15 06:36:24;;;;;;;;;;;19.20;62.90;;;;;;5028161;28;1519;-76
2022/05/15 06:38:49;;;;;;;;;;;19.20;62.90;;;;;;5029645;28;1965;-76
2022/05/15 06:41:14;;;;;;;;;;;19.20;62.90;;;;;;5012737;28;1284;-76
2022/05/15 06:43:40;;;;;;;;;;;19.20;62.90;;;;;;5029505;28;1092;-76
2022/05/15 06:46:05;;;;;;;;;;;19.20;62.90;;;;;;5029323;28;897;-76
2022/05/15 06:48:33;;;;;;;;;;;19.20;62.90;;;;;;5029280;28;1227;-76
2022/05/15 06:50:59;;;;;;;;;;;19.30;63.00;;;;;;5012242;28;1239;-76
2022/05/15 06:53:25;;;;;;;;;;;19.20;63.00;;;;;;5013883;28;846;-76
2022/05/15 06:58:35;;;;;;;;;;;19.30;63.00;;;;;;5026809;28;1906;-76
2022/05/15 07:01:00;;;;;;;;;;;19.20;62.90;;;;;;5029018;28;1191;-76
2022/05/15 07:03:26;;;;;;;;;;;19.20;62.90;;;;;;5029134;28;1013;-74
2022/05/15 07:05:51;;;;;;;;;;;19.20;62.90;;;;;;5028676;28;1199;-74
2022/05/15 07:08:17;;;;;;;;;;;19.20;62.90;;;;;;5013592;28;855;-75
2022/05/15 07:10:42;;;;;;;;;;;19.20;62.90;;;;;;5011207;28;1327;-74
2022/05/15 07:13:08;;;;;;;;;;;19.20;62.90;;;;;;5028424;28;1352;-75
2022/05/15 07:15:33;;;;;;;;;;;19.20;62.90;;;;;;5028704;28;883;-75
2022/05/15 07:17:58;;;;;;;;;;;19.20;63.00;;;;;;5028793;28;1902;-75
2022/05/15 07:20:24;;;;;;;;;;;19.20;63.00;;;;;;5027782;28;1312;-75
2022/05/15 07:22:49;;;;;;;;;;;19.20;63.00;;;;;;5028499;28;840;-75
2022/05/15 07:25:15;;;;;;;;;;;19.20;63.00;;;;;;5028000;28;1561;-75
2022/05/15 07:27:40;;;;;;;;;;;19.20;63.00;;;;;;5012942;28;1096;-75
2022/05/15 07:30:06;;;;;;;;;;;19.20;63.00;;;;;;5027977;28;1218;-75
2022/05/15 07:32:31;;;;;;;;;;;19.20;63.00;;;;;;5028027;28;1278;-75
2022/05/15 07:34:57;;;;;;;;;;;19.20;63.40;;;;;;5028083;28;852;-75
2022/05/15 07:37:22;;;;;;;;;;;19.20;63.00;;;;;;5028115;28;1914;-75
2022/05/15 07:39:48;;;;;;;;;;;19.20;63.00;;;;;;5028076;28;1148;-76
2022/05/15 07:42:14;;;;;;;;;;;19.20;63.00;;;;;;5028129;28;886;-76
2022/05/15 07:44:39;;;;;;;;;;;19.20;63.00;;;;;;5028018;28;893;-76
2022/05/15 07:47:05;;;;;;;;;;;19.20;63.00;;;;;;5027549;28;1179;-76
2022/05/15 07:49:31;;;;;;;;;;;19.20;63.00;;;;;;5012460;28;1186;-76
2022/05/15 07:51:57;;;;;;;;;;;19.20;63.00;;;;;;5012759;28;842;-76
2022/05/15 07:54:22;;;;;;;;;;;19.20;63.00;;;;;;5013121;28;721;-76
2022/05/15 07:56:48;;;;;;;;;;;19.20;63.00;;;;;;5027398;28;1894;-76
2022/05/15 07:59:13;;;;;;;;;;;19.20;63.00;;;;;;5027782;28;1168;-76
2022/05/15 08:01:39;;;;;;;;;;;19.20;63.00;;;;;;5028179;28;1224;-76
2022/05/15 08:04:04;;;;;;;;;;;19.20;63.00;;;;;;5027854;28;1005;-77
2022/05/15 08:09:14;;;;;;;;;;;19.20;63.00;;;;;;5025448;28;1281;-76
2022/05/15 08:11:39;;;;;;;;;;;19.20;63.00;;;;;;5012680;28;981;-76
2022/05/15 08:14:05;;;;;;;;;;;19.20;63.00;;;;;;5027818;28;1048;-75
2022/05/15 08:16:31;;;;;;;;;;;19.20;63.00;;;;;;5027485;28;1084;-74
2022/05/15 08:24:25;;;;;;;;;;;19.20;63.00;;;;;;5025609;28;678;-75
2022/05/15 08:26:50;;;;;;;;;;;19.20;63.10;;;;;;5027413;28;1355;-75
2022/05/15 08:29:17;;;;;;;;;;;19.20;63.00;;;;;;5027205;28;1584;-74
2022/05/15 08:31:42;;;;;;;;;;;19.20;63.00;;;;;;5010882;28;1290;-75
2022/05/15 08:34:08;;;;;;;;;;;19.20;63.00;;;;;;5027035;28;1294;-75
2022/05/15 08:36:33;;;;;;;;;;;19.30;63.10;;;;;;5027293;28;790;-76
2022/05/15 08:38:59;;;;;;;;;;;19.20;63.10;;;;;;5027266;28;1990;-75
2022/05/15 08:41:30;;;;;;;;;;;19.20;63.10;;;;;;5026809;28;1528;-74
2022/05/15 08:44:14;;;;;;;;;;;19.20;63.00;;;;;;5027373;28;1269;-75
2022/05/15 08:46:49;;;;;;;;;;;19.20;63.10;;;;;;5011255;28;993;-75
2022/05/15 08:49:17;;;;;;;;;;;19.20;63.10;;;;;;5011601;28;1184;-75
2022/05/15 08:51:59;;;;;;;;;;;19.20;63.10;;;;;;5010257;28;1312;-75
2022/05/15 08:54:24;;;;;;;;;;;19.20;63.10;;;;;;5011906;28;950;-76
2022/05/15 08:56:50;;;;;;;;;;;19.20;63.10;;;;;;5026595;28;1936;-76
2022/05/15 08:59:20;;;;;;;;;;;19.20;63.10;;;;;;5012411;28;1167;-76
2022/05/15 09:01:45;;;;;;;;;;;19.20;63.10;;;;;;5031180;28;1231;-76
2022/05/15 09:04:11;;;;;;;;;;;19.20;63.10;;;;;;5014684;28;898;-76
2022/05/15 09:06:42;;;;;;;;;;;19.20;63.10;;;;;;5030951;28;706;-77
2022/05/15 09:09:37;;;;;;;;;;;19.20;63.10;;;;;;5012638;28;1210;-76
2022/05/15 09:12:05;;;;;;;;;;;19.20;63.10;;;;;;4976542;28;1535;-76
2022/05/15 09:14:43;;;;;;;;;;;19.20;63.10;;;;;;5013502;28;1227;-76
2022/05/15 09:17:11;;;;;;;;;;;19.20;63.40;;;;;;5009080;28;1902;-76
2022/05/15 09:19:36;;;;;;;;;;;19.20;63.10;;;;;;5007653;28;1315;-76
2022/05/15 09:22:03;;;;;;;;;;;19.20;63.10;;;;;;5013645;28;1260;-76
2022/05/15 09:24:32;;;;;;;;;;;19.20;63.10;;;;;;5030830;28;1029;-76
2022/05/15 09:27:09;;;;;;;;;;;19.20;63.10;;;;;;5030129;28;1195;-77
2022/05/15 09:29:35;;;;;;;;;;;19.20;63.10;;;;;;5030330;28;1217;-76
2022/05/15 09:32:02;;;;;;;;;;;19.20;63.10;;;;;;5030581;28;858;-76
2022/05/15 09:34:32;;;;;;;;;;;19.20;63.10;;;;;;5028357;28;1982;-76
2022/05/15 09:38:27;;;;;;;;;;;19.20;63.10;;;;;;5014059;28;1914;-77
2022/05/15 09:39:47;;;;;;;;;;;19.20;63.10;;;;;;5028031;28;1192;-77
2022/05/15 09:45:32;;;;;;;;;;;19.20;63.10;;;;;;5016887;28;677;-77
2022/05/15 09:47:58;;;;;;;;;;;19.20;63.10;;;;;;5004876;28;1295;-77
2022/05/15 09:50:43;;;;;;;;;;;19.20;63.10;;;;;;5031855;28;1378;-77
2022/05/15 09:53:11;;;;;;;;;;;19.20;63.10;;;;;;5031857;28;1171;-78
2022/05/15 09:55:36;;;;;;;;;;;19.20;63.10;;;;;;5032895;28;1242;-77
2022/05/15 09:58:03;;;;;;;;;;;19.20;63.10;;;;;;5032397;28;1942;-77
2022/05/15 10:00:30;;;;;;;;;;;19.20;63.10;;;;;;5031259;28;1280;-77
2022/05/15 10:03:03;;;;;;;;;;;19.20;63.10;;;;;;5028752;28;1982;-77
2022/05/15 10:05:33;;;;;;;;;;;19.20;63.10;;;;;;5023077;28;1003;-76
2022/05/15 10:07:59;;;;;;;;;;;19.20;63.10;;;;;;5009518;28;1127;-76
2022/05/15 10:10:34;;;;;;;;;;;19.20;63.10;;;;;;4996168;28;1348;-76
2022/05/15 10:13:09;;;;;;;;;;;19.20;63.10;;;;;;4996441;28;1139;-76
2022/05/15 10:15:36;;;;;;;;;;;19.20;63.10;;;;;;4993549;28;926;-76
2022/05/15 10:18:03;;;;;;;;;;;19.20;63.10;;;;;;4998180;28;1970;-76
2022/05/15 10:20:29;;;;;;;;;;;19.20;63.10;;;;;;5025094;28;1368;-77
2022/05/15 10:23:00;;;;;;;;;;;19.20;63.10;;;;;;5011244;28;1098;-76
2022/05/15 10:25:37;;;;;;;;;;;19.20;63.20;;;;;;5010153;28;1187;-76
2022/05/15 10:28:09;;;;;;;;;;;19.20;63.10;;;;;;4993735;28;1434;-77
2022/05/15 10:30:38;;;;;;;;;;;19.20;63.10;;;;;;4995915;28;1609;-77
2022/05/15 10:33:05;;;;;;;;;;;19.20;63.10;;;;;;4993877;28;1046;-77
2022/05/15 10:35:37;;;;;;;;;;;19.20;63.10;;;;;;4994121;28;1307;-77
2022/05/15 10:38:07;;;;;;;;;;;19.20;63.10;;;;;;4993636;28;1968;-76
2022/05/15 10:40:51;;;;;;;;;;;19.20;63.10;;;;;;5006359;28;1399;-77
2022/05/15 10:43:34;;;;;;;;;;;19.20;63.10;;;;;;4996389;28;1240;-76
2022/05/15 10:46:15;;;;;;;;;;;19.20;63.10;;;;;;5027986;28;1294;-76
2022/05/15 10:48:56;;;;;;;;;;;19.20;63.10;;;;;;5025017;28;1439;-76
2022/05/15 10:51:26;;;;;;;;;;;19.20;63.10;;;;;;5029322;28;1307;-77
2022/05/15 10:59:26;;;;;;;;;;;19.20;63.20;;;;;;5010698;28;1369;-76
2022/05/15 11:01:52;;;;;;;;;;;19.20;63.20;;;;;;5027706;28;1271;-75
2022/05/15 11:04:23;;;;;;;;;;;19.20;63.10;;;;;;5035305;28;1338;-75
2022/05/15 11:06:54;;;;;;;;;;;19.20;63.20;;;;;;5011585;28;1183;-75
2022/05/15 11:09:23;;;;;;;;;;;19.20;63.10;;;;;;5028059;28;1269;-76
2022/05/15 11:12:10;;;;;;;;;;;19.20;63.20;;;;;;5026457;28;1253;-76
2022/05/15 11:14:54;;;;;;;;;;;19.20;63.10;;;;;;5007857;28;1343;-75
2022/05/15 11:17:25;;;;;;;;;;;19.20;63.10;;;;;;5008684;28;1959;-76
2022/05/15 11:19:50;;;;;;;;;;;19.20;63.20;;;;;;5024293;28;2090;-75
2022/05/15 11:22:27;;;;;;;;;;;19.20;63.20;;;;;;5010868;28;1083;-76
2022/05/15 11:24:52;;;;;;;;;;;19.20;63.10;;;;;;5027691;28;1133;-76
2022/05/15 11:27:36;;;;;;;;;;;19.20;63.20;;;;;;5000133;28;1132;-76
2022/05/15 11:30:03;;;;;;;;;;;19.20;63.20;;;;;;4993229;28;1309;-76
2022/05/15 11:32:34;;;;;;;;;;;19.20;63.20;;;;;;5020482;28;1310;-76
2022/05/15 11:35:00;;;;;;;;;;;19.20;63.20;;;;;;5010348;28;1925;-76
2022/05/15 11:37:38;;;;;;;;;;;19.20;63.20;;;;;;4990236;28;1886;-80
2022/05/15 11:40:07;;;;;;;;;;;19.20;63.20;;;;;;5003654;28;1281;-77
2022/05/15 11:42:32;;;;;;;;;;;19.20;63.20;;;;;;5002389;28;1439;-76
2022/05/15 11:44:58;;;;;;;;;;;19.20;63.20;;;;;;5001554;28;1188;-80
2022/05/15 11:47:25;;;;;;;;;;;19.20;63.20;;;;;;5041053;28;1376;-80
2022/05/15 11:50:10;;;;;;;;;;;19.20;63.20;;;;;;5007985;28;2230;-80
2022/05/15 11:52:43;;;;;;;;;;;19.20;63.20;;;;;;5014914;28;1252;-80
2022/05/15 11:55:27;;;;;;;;;;;19.20;63.20;;;;;;5009392;28;1260;-80
2022/05/15 11:57:53;;;;;;;;;;;19.20;63.20;;;;;;5009123;28;1906;-80
2022/05/15 12:00:22;;;;;;;;;;;19.30;63.10;;;;;;5011335;28;1308;-80
2022/05/15 12:02:49;;;;;;;;;;;19.30;62.60;;;;;;5005851;28;1235;-79
2022/05/15 12:05:36;;;;;;;;;;;19.30;61.00;;;;;;4992851;28;823;-75
2022/05/15 12:08:07;;;;;;;;;;;19.30;57.60;;;;;;5008154;28;1186;-76
2022/05/15 12:10:32;;;;;;;;;;;19.40;56.30;;;;;;4992543;28;1379;-76
2022/05/15 12:13:06;;;;;;;;;;;19.40;55.30;;;;;;5005818;28;1449;-75
2022/05/15 12:15:51;;;;;;;;;;;19.40;55.70;;;;;;5028318;28;1503;-75
2022/05/15 12:18:26;;;;;;;;;;;19.40;56.10;;;;;;5002998;28;1903;-76
2022/05/15 12:20:52;;;;;;;;;;;19.40;55.30;;;;;;5000220;28;1289;-75
2022/05/15 12:23:19;;;;;;;;;;;19.50;57.40;;;;;;5002194;28;1288;-75
2022/05/15 12:25:50;;;;;;;;;;;19.50;56.70;;;;;;5002033;28;1216;-77
2022/05/15 12:31:11;;;;;;;;;;;19.50;55.60;;;;;;5005056;28;3528;-76
2022/05/15 12:33:40;;;;;;;;;;;19.50;54.80;;;;;;5025516;28;972;-76
2022/05/15 12:36:12;;;;;;;;;;;19.50;54.40;;;;;;5027945;28;1168;-76
2022/05/15 12:38:38;;;;;;;;;;;19.50;53.60;;;;;;5006734;28;1982;-76
2022/05/15 12:41:07;;;;;;;;;;;19.60;52.60;;;;;;5008423;28;1306;-76
2022/05/15 12:43:34;;;;;;;;;;;19.50;52.20;;;;;;5026835;28;1079;-77
2022/05/15 12:46:00;;;;;;;;;;;19.60;54.00;;;;;;5026023;28;1113;-86
2022/05/15 12:48:25;;;;;;;;;;;19.50;54.00;;;;;;5011107;28;1454;-76
2022/05/15 12:51:06;;;;;;;;;;;19.50;52.60;;;;;;5026591;28;1221;-77
2022/05/15 12:53:44;;;;;;;;;;;19.60;51.80;;;;;;5012428;28;1283;-76
2022/05/15 12:56:15;;;;;;;;;;;19.50;51.60;;;;;;5012641;28;832;-77
2022/05/15 12:58:41;;;;;;;;;;;19.60;52.00;;;;;;5018218;28;1956;-77
2022/05/15 13:01:06;;;;;;;;;;;19.60;52.90;;;;;;5011696;28;1261;-76
2022/05/15 13:03:32;;;;;;;;;;;19.60;52.70;;;;;;5027480;28;1247;-76
2022/05/15 13:05:58;;;;;;;;;;;19.60;52.90;;;;;;5010218;28;843;-76
2022/05/15 13:08:25;;;;;;;;;;;19.60;52.90;;;;;;5011317;28;1045;-76
2022/05/15 13:10:55;;;;;;;;;;;19.60;52.30;;;;;;5009788;28;1217;-76
2022/05/15 13:13:24;;;;;;;;;;;19.60;50.90;;;;;;5009924;28;1357;-76
2022/05/15 13:15:51;;;;;;;;;;;19.60;51.10;;;;;;5011550;28;867;-76
2022/05/15 13:18:16;;;;;;;;;;;19.60;51.80;;;;;;5011247;28;1902;-74
2022/05/15 13:20:44;;;;;;;;;;;19.60;52.30;;;;;;5018655;28;1286;-76
2022/05/15 13:23:11;;;;;;;;;;;19.60;52.20;;;;;;5007889;28;1220;-76
2022/05/15 13:25:38;;;;;;;;;;;19.60;51.20;;;;;;5007284;28;1147;-75
2022/05/15 13:28:04;;;;;;;;;;;19.60;51.80;;;;;;5006705;28;1427;-75
2022/05/15 13:30:30;;;;;;;;;;;19.60;52.00;;;;;;4991592;28;1286;-75
2022/05/15 13:33:23;;;;;;;;;;;19.60;52.40;;;;;;4991713;28;887;-76
2022/05/15 13:35:49;;;;;;;;;;;19.60;51.90;;;;;;4992042;28;1315;-75
2022/05/15 13:38:28;;;;;;;;;;;19.60;50.80;;;;;;4990192;28;1915;-75
2022/05/15 13:44:01;;;;;;;;;;;19.60;51.60;;;;;;4990711;28;661;-72
2022/05/15 13:46:31;;;;;;;;;;;19.60;51.60;;;;;;4996655;28;922;-75
2022/05/15 13:48:56;;;;;;;;;;;19.60;51.80;;;;;;4995211;28;1131;-80
2022/05/15 13:51:37;;;;;;;;;;;19.60;51.40;;;;;;5011647;28;1311;-75
2022/05/15 13:54:12;;;;;;;;;;;19.60;50.80;;;;;;4996483;28;827;-74
2022/05/15 13:56:37;;;;;;;;;;;19.60;51.40;;;;;;5026808;28;1743;-75
2022/05/15 13:59:03;;;;;;;;;;;19.60;51.30;;;;;;5025745;28;1946;-74
2022/05/15 14:01:35;;;;;;;;;;;19.60;50.80;;;;;;5029085;28;1250;-75
2022/05/15 14:04:19;;;;;;;;;;;19.60;50.60;;;;;;5001719;28;1354;-75
2022/05/15 14:06:45;;;;;;;;;;;19.60;49.60;;;;;;5025859;28;1375;-75
2022/05/15 14:09:11;;;;;;;;;;;19.70;48.90;;;;;;4992603;28;1279;-75
2022/05/15 14:11:47;;;;;;;;;;;19.60;49.00;;;;;;4992958;28;1299;-75
2022/05/15 14:14:12;;;;;;;;;;;19.60;50.80;;;;;;5005757;28;1369;-75
2022/05/15 14:16:38;;;;;;;;;;;19.60;51.80;;;;;;5002978;28;1307;-76
2022/05/15 14:19:13;;;;;;;;;;;19.60;51.40;;;;;;5028418;28;1894;-76
2022/05/15 14:21:54;;;;;;;;;;;19.60;51.20;;;;;;5012490;28;1099;-86
2022/05/15 14:24:19;;;;;;;;;;;19.70;51.30;;;;;;5025190;28;1658;-75
2022/05/15 14:26:45;;;;;;;;;;;19.60;50.60;;;;;;5001852;28;1191;-74
2022/05/15 14:29:12;;;;;;;;;;;19.60;52.90;;;;;;5011678;28;1286;-75
2022/05/15 14:31:38;;;;;;;;;;;19.60;53.70;;;;;;4996952;28;1220;-76
2022/05/15 14:34:03;;;;;;;;;;;19.60;54.50;;;;;;5011549;28;1322;-76
2022/05/15 14:36:30;;;;;;;;;;;19.60;54.90;;;;;;5028423;28;1258;-75
2022/05/15 14:38:55;;;;;;;;;;;19.60;55.00;;;;;;5028277;28;1988;-75
2022/05/15 14:41:21;;;;;;;;;;;19.60;55.40;;;;;;5012792;28;1243;-75
2022/05/15 14:43:46;;;;;;;;;;;19.50;55.60;;;;;;5027436;28;1199;-76
2022/05/15 14:46:13;;;;;;;;;;;19.50;56.00;;;;;;4994110;28;1275;-76
2022/05/15 14:48:39;;;;;;;;;;;19.50;56.30;;;;;;5044467;28;1287;-75
2022/05/15 14:51:06;;;;;;;;;;;19.50;56.40;;;;;;5013351;28;1286;-74
2022/05/15 14:53:32;;;;;;;;;;;19.50;56.60;;;;;;5012713;28;1041;-75
2022/05/15 14:56:09;;;;;;;;;;;19.50;56.80;;;;;;5011905;28;622;-75
2022/05/15 14:58:35;;;;;;;;;;;19.50;56.90;;;;;;5005830;28;1902;-75
2022/05/15 15:01:02;;;;;;;;;;;19.50;57.10;;;;;;5012148;28;1552;-75
2022/05/15 15:03:28;;;;;;;;;;;19.40;57.20;;;;;;5028973;28;823;-75
2022/05/15 15:05:53;;;;;;;;;;;19.40;57.10;;;;;;5029108;28;1108;-75